Aérodrome :
LOGIN :

S'inscrire | Disclaimer

   EN    FR    IT 

 










Légende :    VFR   VFR Marginal   IFR   IFR Intensif   IFR Très Intensif
Visi : 
Plafond : 
>= 8 km
>= 3000ft
5 à 8 km
1000 à 3000 ft
1500m à 5 km
500 à 1000 ft
800 à 1500m
200 à 500 ft
< 800m
< 200 ft
Symboles :   Orages  Brouillard  Fortes neiges  Fortes précipitations  Vent > 20 kt
SIGMETs :   Divers  Orages  Givrage  Turbulence  Onde Orograph.  Cendres Volcan.






- Altitude de l'aérodrome : 55 ft
- Code IATA : DSA


EGCN - Robin Hood Doncaster Sheffield

DERNIER METAR :
  • 271750Z 28011KT CAVOK 04/00 Q1007

METARs EXPIRÉS :
  • 271720Z 29014KT 9999 FEW033 05/00 Q1007
  • 271650Z 29015KT 9999 FEW028 05/00 Q1007
  • 271620Z 29016KT 9999 FEW032 06/M01 Q1006
  • 271550Z 29023G33KT 9999 FEW045 06/M01 Q1005
  • 271520Z 29020KT 9999 FEW043 07/M01 Q1004

TAF TAF EGCN
Valide du 27 à 18h jusqu'au 28 à 18h UTC


271657Z 2718/2818 28013KT 9999 SCT025
BECMG 2800/2803 21008KT
BECMG 2809/2812 15012KT
TEMPO 2810/2818 8000 -RA BKN012
PROB40
TEMPO 2810/2818 4000 RADZ BKN008
PROB40
TEMPO 2813/2818 17016G26KT



MET'MAP, la Météo Aéronautique d'un coup d'oeil ! - Copyright ORBIFLY Décembre 2007 - Disclaimer

ORBIFLY MET'MAP TEAM :

Programmation & Développement : Alexandra Zaïnal
Sur une idée originale de : Baudouin d'Aumeries
Assistance à la programmation : Marc-Olivier Méhu
Soutien technique & logistique : Manuel Goepfert

Contact : metmap@orbifly.com




SOURCES & CREDITS :

   NOAA